Portada
METAR-TAF:

METAR-TAF

Aeroports :

Siler City, Carolina del Nord, Estats Units d'Amèrica

latitud: 35-42-15N, longitud: 079-30-15W, altitud: 187 m

Observació

L'informe es va fer fa 28 minuts, a les 00:15 UTC
Vent calma
Temperatura 26°C
Humitat 89%
Pressió 1016 hPa
Visibilitat: 16.1 km
Cel clar

METAR: KSCR 110015Z AUTO 00000KT 10SM CLR 26/24 A3000 RMK AO2 T02550240

Hora: 20:43 (00:43 UTC)


TAF: manca

Observacions i pronòstics meteorològics de més de 4000 aeroports (METAR i TAF).

Les estacions disponibles són els punts grocs i vermells al mapa.

Posi el ratolí al punt desitjat per veure el nom de l'estació.

Feu clic per veure les observacions i els pronòstics meteorològics.

Per canviar el mapa: feu clic els botons verds amb una creu de color negre per apropar; al botó verd amb un guió per allunyar la imatge; o en les fletxes verdes per a mapes adjacents.


METAR-TAF: